Biloxi, MS

9:19 PM CST on December 04, 2016 (GMT -0600)
Forest Cove | | Change Station

Elev 46 ft 30.44 °N, 88.91 °W | Updated 2 minutes ago

Light Rain
Light Rain
61.2 °F
Feels Like 61.2 °F
N
2.2
Wind Variable Wind from West

Today
High -- | Low -- °F
--% Chance of Precip.
Yesterday
High -- | Low -- °F
Precip. -- in
Pressure 29.99 in
Visibility 8.0 miles
Clouds Mostly Cloudy 600 ft
Overcast 6500 ft
Dew Point 60 °F
Humidity 97%
Rainfall 2.99 in
Snow Depth Not available.
6:37 AM 4:54 PM
Waxing Crescent, 27% visible
SPECI KBIX 050303Z AUTO 32004KT 8SM -RA BKN006 OVC065 17/17 A2999 RMK AO2 CIG 006V070 BKN V FEW
Pressure 29.99 in
Visibility 8.0 miles
Clouds Mostly Cloudy 600 ft
Overcast 6500 ft
Dew Point 60 °F
Humidity 97%
Rainfall 2.99 in
Snow Depth Not available.
6:37 AM 4:54 PM
Waxing Crescent, 27% visible
SPECI KBIX 050303Z AUTO 32004KT 8SM -RA BKN006 OVC065 17/17 A2999 RMK AO2 CIG 006V070 BKN V FEW

10-Day Weather Forecast

Almanac

Astronomy

Dec. 04, 2016 Rise Set
Actual Time
Civil Twilight
Nautical Twilight
Astronomical Twilight
Moon
Length of Visible Light
Length of Day
Tomorrow will be .
, % of the Moon is Illuminated

Today's Extremes

State Highs State Lows

Community

WunderPhotos

Upload Photos

1,955,752 photos uploaded!

WunderBlog® & News

Nearby

Air Quality

  Air Quality AQ Index Pollutant
Not available.

Snow Depth

Station Depth Elevation

Earthquake Activity

City Distance Mag. Time & Date
Minimum magnitude displayed is 2.5.

Coastal Water Temperatures

Place Temperature

Stations

Nearby Weather Stations

Station Location Temp. Windchill Dew Point Humidity Wind Precip. Elev Updated Type
                   

Watches & Warnings

There are currently no watches in effect.